Time,TemperatureF,DewpointF,PressureIn,WindDirection,WindDirectionDegrees,WindSpeedMPH,WindSpeedGustMPH,Humidity,HourlyPrecipIn,Conditions,Clouds,dailyrainin,SoftwareType,DateUTC
2013-03-23 00:00:00,31.0,23.7,29.91,West,270,6.0,9.0,74,0.00,,,0.00,Weather View 32 v70,2013-03-23 04:00:00,
2013-03-23 00:05:00,31.0,23.7,29.91,WNW,292,4.0,9.0,74,0.00,,,0.00,Weather View 32 v70,2013-03-23 04:05:00,
2013-03-23 00:10:00,31.0,23.4,29.91,NW,315,4.0,9.0,73,0.00,,,0.00,Weather View 32 v70,2013-03-23 04:10:00,
2013-03-23 00:15:00,31.0,23.4,29.91,West,270,5.0,9.0,73,0.00,,,0.00,Weather View 32 v70,2013-03-23 04:15:00,
2013-03-23 00:20:00,31.0,23.4,29.91,WNW,292,4.0,9.0,73,0.00,,,0.00,Weather View 32 v70,2013-03-23 04:20:00,
2013-03-23 00:25:00,31.0,23.4,29.91,West,270,2.0,9.0,73,0.00,,,0.00,Weather View 32 v70,2013-03-23 04:25:00,
2013-03-23 00:30:00,31.0,23.4,29.91,WNW,292,2.0,9.0,73,0.00,,,0.00,Weather View 32 v70,2013-03-23 04:30:00,
2013-03-23 00:35:00,31.0,23.4,29.91,WNW,292,5.0,9.0,73,0.00,,,0.00,Weather View 32 v70,2013-03-23 04:35:00,
2013-03-23 00:40:00,31.0,23.0,29.91,WNW,292,3.0,8.0,72,0.00,,,0.00,Weather View 32 v70,2013-03-23 04:40:00,
2013-03-23 00:45:00,31.0,23.0,29.91,WNW,292,0.0,8.0,72,0.00,,,0.00,Weather View 32 v70,2013-03-23 04:45:00,
2013-03-23 00:50:00,31.0,23.4,29.92,WNW,292,0.0,7.0,73,0.00,,,0.00,Weather View 32 v70,2013-03-23 04:50:00,
2013-03-23 00:55:00,31.0,23.0,29.92,NNE,22,5.0,7.0,72,0.00,,,0.00,Weather View 32 v70,2013-03-23 04:55:00,
2013-03-23 01:00:00,32.0,24.0,29.92,NNE,22,1.0,7.0,72,0.00,,,0.00,Weather View 32 v70,2013-03-23 05:00:00,
2013-03-23 01:05:00,32.0,24.0,29.92,NW,315,2.0,7.0,72,0.00,,,0.00,Weather View 32 v70,2013-03-23 05:05:00,
2013-03-23 01:10:00,32.0,24.0,29.92,NW,315,0.0,7.0,72,0.00,,,0.00,Weather View 32 v70,2013-03-23 05:10:00,
2013-03-23 01:15:00,32.0,24.0,29.92,NW,315,2.0,7.0,72,0.00,,,0.00,Weather View 32 v70,2013-03-23 05:15:00,
2013-03-23 01:20:00,32.0,24.0,29.92,NW,315,2.0,7.0,72,0.00,,,0.00,Weather View 32 v70,2013-03-23 05:20:00,
2013-03-23 01:25:00,32.0,24.0,29.92,NW,315,0.0,7.0,72,0.00,,,0.00,Weather View 32 v70,2013-03-23 05:25:00,
2013-03-23 01:30:00,32.0,24.0,29.92,NW,315,1.0,7.0,72,0.00,,,0.00,Weather View 32 v70,2013-03-23 05:30:00,
2013-03-23 01:35:00,32.0,24.0,29.92,West,270,0.0,7.0,72,0.00,,,0.00,Weather View 32 v70,2013-03-23 05:35:00,
2013-03-23 01:40:00,32.0,25.3,29.92,WNW,292,0.0,6.0,76,0.00,,,0.00,Weather View 32 v70,2013-03-23 05:40:00,
2013-03-23 01:45:00,32.0,24.3,29.92,WSW,247,0.0,6.0,73,0.00,,,0.00,Weather View 32 v70,2013-03-23 05:45:00,
2013-03-23 01:50:00,32.0,24.0,29.92,WNW,292,1.0,6.0,72,0.00,,,0.00,Weather View 32 v70,2013-03-23 05:50:00,
2013-03-23 01:55:00,32.0,24.0,29.92,WNW,292,2.0,6.0,72,0.00,,,0.00,Weather View 32 v70,2013-03-23 05:55:00,
2013-03-23 02:00:00,32.0,24.0,29.92,WNW,292,2.0,6.0,72,0.00,,,0.00,Weather View 32 v70,2013-03-23 06:00:00,
2013-03-23 02:05:00,32.0,24.0,29.92,NW,315,3.0,6.0,72,0.00,,,0.00,Weather View 32 v70,2013-03-23 06:05:00,
2013-03-23 02:10:00,32.0,23.7,29.92,WNW,292,2.0,6.0,71,0.00,,,0.00,Weather View 32 v70,2013-03-23 06:10:00,
2013-03-23 02:15:00,32.0,24.0,29.92,WNW,292,2.0,9.0,72,0.00,,,0.00,Weather View 32 v70,2013-03-23 06:15:00,
2013-03-23 02:21:00,32.0,24.0,29.92,WNW,292,2.0,9.0,72,0.00,,,0.00,Weather View 32 v70,2013-03-23 06:21:00,
2013-03-23 02:26:00,32.0,24.0,29.92,West,270,3.0,9.0,72,0.00,,,0.00,Weather View 32 v70,2013-03-23 06:26:00,
2013-03-23 02:31:00,32.0,24.3,29.91,West,270,1.0,9.0,73,0.00,,,0.00,Weather View 32 v70,2013-03-23 06:31:00,
2013-03-23 02:36:00,32.0,24.3,29.91,West,270,1.0,9.0,73,0.00,,,0.00,Weather View 32 v70,2013-03-23 06:36:00,
2013-03-23 02:41:00,32.0,24.3,29.91,West,270,1.0,9.0,73,0.00,,,0.00,Weather View 32 v70,2013-03-23 06:41:00,
2013-03-23 02:46:00,32.0,24.6,29.91,West,270,0.0,9.0,74,0.00,,,0.00,Weather View 32 v70,2013-03-23 06:46:00,
2013-03-23 02:51:00,32.0,25.9,29.91,West,270,0.0,9.0,78,0.00,,,0.00,Weather View 32 v70,2013-03-23 06:51:00,
2013-03-23 02:56:00,32.0,25.0,29.91,West,270,0.0,9.0,75,0.00,,,0.00,Weather View 32 v70,2013-03-23 06:56:00,
2013-03-23 03:01:00,32.0,25.6,29.91,West,270,0.0,9.0,77,0.00,,,0.00,Weather View 32 v70,2013-03-23 07:01:00,
2013-03-23 03:06:00,32.0,25.3,29.91,West,270,0.0,9.0,76,0.00,,,0.00,Weather View 32 v70,2013-03-23 07:06:00,
2013-03-23 03:11:00,32.0,25.6,29.90,SSW,202,0.0,9.0,77,0.00,,,0.00,Weather View 32 v70,2013-03-23 07:11:00,
2013-03-23 03:16:00,31.0,24.3,29.90,WNW,292,0.0,7.0,76,0.00,,,0.00,Weather View 32 v70,2013-03-23 07:16:00,
2013-03-23 03:21:00,31.0,24.3,29.90,WSW,247,4.0,7.0,76,0.00,,,0.00,Weather View 32 v70,2013-03-23 07:21:00,
2013-03-23 03:26:00,31.0,24.0,29.90,WSW,247,4.0,9.0,75,0.00,,,0.00,Weather View 32 v70,2013-03-23 07:26:00,
2013-03-23 03:32:00,32.0,25.0,29.90,West,270,1.0,10.0,75,0.00,,,0.00,Weather View 32 v70,2013-03-23 07:32:00,
2013-03-23 03:37:00,32.0,25.0,29.90,WNW,292,2.0,10.0,75,0.00,,,0.00,Weather View 32 v70,2013-03-23 07:37:00,
2013-03-23 03:42:00,32.0,25.0,29.89,West,270,5.0,10.0,75,0.00,,,0.00,Weather View 32 v70,2013-03-23 07:42:00,
2013-03-23 03:47:00,32.0,24.6,29.89,WNW,292,2.0,10.0,74,0.00,,,0.00,Weather View 32 v70,2013-03-23 07:47:00,
2013-03-23 03:52:00,32.0,24.6,29.89,WSW,247,2.0,10.0,74,0.00,,,0.00,Weather View 32 v70,2013-03-23 07:52:00,
2013-03-23 03:57:00,32.0,24.3,29.89,West,270,6.0,10.0,73,0.00,,,0.00,Weather View 32 v70,2013-03-23 07:57:00,
2013-03-23 04:02:00,32.0,24.6,29.89,West,270,3.0,10.0,74,0.00,,,0.00,Weather View 32 v70,2013-03-23 08:02:00,
2013-03-23 04:07:00,32.0,24.6,29.89,NW,315,1.0,10.0,74,0.00,,,0.00,Weather View 32 v70,2013-03-23 08:07:00,
2013-03-23 04:12:00,32.0,24.0,29.89,SSW,202,2.0,10.0,72,0.00,,,0.00,Weather View 32 v70,2013-03-23 08:12:00,
2013-03-23 04:17:00,32.0,24.0,29.89,West,270,0.0,10.0,72,0.00,,,0.00,Weather View 32 v70,2013-03-23 08:17:00,
2013-03-23 04:22:00,32.0,23.7,29.89,NW,315,6.0,10.0,71,0.00,,,0.00,Weather View 32 v70,2013-03-23 08:22:00,
2013-03-23 04:27:00,32.0,24.0,29.89,West,270,5.0,10.0,72,0.00,,,0.00,Weather View 32 v70,2013-03-23 08:27:00,
2013-03-23 04:32:00,32.0,23.7,29.89,WNW,292,7.0,9.0,71,0.00,,,0.00,Weather View 32 v70,2013-03-23 08:32:00,
2013-03-23 04:37:00,32.0,23.7,29.89,West,270,5.0,11.0,71,0.00,,,0.00,Weather View 32 v70,2013-03-23 08:37:00,
2013-03-23 04:42:00,32.0,23.3,29.89,West,270,2.0,11.0,70,0.00,,,0.00,Weather View 32 v70,2013-03-23 08:42:00,
2013-03-23 04:47:00,32.0,23.3,29.89,WSW,247,7.0,11.0,70,0.00,,,0.00,Weather View 32 v70,2013-03-23 08:47:00,
2013-03-23 04:52:00,32.0,23.3,29.88,West,270,4.0,11.0,70,0.00,,,0.00,Weather View 32 v70,2013-03-23 08:52:00,
2013-03-23 04:58:00,32.0,23.3,29.88,West,270,1.0,11.0,70,0.00,,,0.00,Weather View 32 v70,2013-03-23 08:58:00,
2013-03-23 05:03:00,32.0,23.3,29.88,West,270,1.0,11.0,70,0.00,,,0.00,Weather View 32 v70,2013-03-23 09:03:00,
2013-03-23 05:08:00,32.0,23.3,29.88,WSW,247,0.0,11.0,70,0.00,,,0.00,Weather View 32 v70,2013-03-23 09:08:00,
2013-03-23 05:13:00,32.0,23.3,29.89,WSW,247,1.0,11.0,70,0.00,,,0.00,Weather View 32 v70,2013-03-23 09:13:00,
2013-03-23 05:20:00,32.0,24.0,29.89,WSW,247,4.0,11.0,72,0.00,,,0.00,Weather View 32 v70,2013-03-23 09:20:00,
2013-03-23 05:25:00,32.0,23.7,29.89,WNW,292,5.0,11.0,71,0.00,,,0.00,Weather View 32 v70,2013-03-23 09:25:00,
2013-03-23 05:30:00,32.0,24.0,29.89,WSW,247,5.0,11.0,72,0.00,,,0.00,Weather View 32 v70,2013-03-23 09:30:00,
2013-03-23 05:35:00,32.0,25.0,29.89,West,270,3.0,10.0,75,0.00,,,0.00,Weather View 32 v70,2013-03-23 09:35:00,
2013-03-23 05:40:00,32.0,24.3,29.89,WSW,247,3.0,10.0,73,0.00,,,0.00,Weather View 32 v70,2013-03-23 09:40:00,
2013-03-23 05:45:00,31.0,23.4,29.89,SW,225,1.0,9.0,73,0.00,,,0.00,Weather View 32 v70,2013-03-23 09:45:00,
2013-03-23 05:50:00,31.0,23.4,29.89,WSW,247,6.0,9.0,73,0.00,,,0.00,Weather View 32 v70,2013-03-23 09:50:00,
2013-03-23 05:55:00,31.0,25.6,29.89,West,270,0.0,9.0,80,0.00,,,0.00,Weather View 32 v70,2013-03-23 09:55:00,
2013-03-23 06:00:00,31.0,23.7,29.89,West,270,1.0,7.0,74,0.00,,,0.00,Weather View 32 v70,2013-03-23 10:00:00,
2013-03-23 06:05:00,31.0,24.0,29.89,West,270,1.0,7.0,75,0.00,,,0.00,Weather View 32 v70,2013-03-23 10:05:00,
2013-03-23 06:10:00,30.0,23.0,29.90,WSW,247,1.0,9.0,75,0.00,,,0.00,Weather View 32 v70,2013-03-23 10:10:00,
2013-03-23 06:15:00,30.0,23.4,29.90,West,270,2.0,9.0,76,0.00,,,0.00,Weather View 32 v70,2013-03-23 10:15:00,
2013-03-23 06:20:00,30.0,23.7,29.90,SW,225,5.0,9.0,77,0.00,,,0.00,Weather View 32 v70,2013-03-23 10:20:00,
2013-03-23 06:25:00,30.0,23.7,29.90,WSW,247,3.0,9.0,77,0.00,,,0.00,Weather View 32 v70,2013-03-23 10:25:00,
2013-03-23 06:30:00,30.0,23.7,29.91,WNW,292,5.0,9.0,77,0.00,,,0.00,Weather View 32 v70,2013-03-23 10:30:00,
2013-03-23 06:35:00,30.0,23.7,29.91,WNW,292,0.0,9.0,77,0.00,,,0.00,Weather View 32 v70,2013-03-23 10:35:00,
2013-03-23 06:40:00,30.0,23.4,29.91,WNW,292,4.0,9.0,76,0.00,,,0.00,Weather View 32 v70,2013-03-23 10:40:00,
2013-03-23 06:45:00,30.0,23.4,29.91,West,270,2.0,9.0,76,0.00,,,0.00,Weather View 32 v70,2013-03-23 10:45:00,
2013-03-23 06:50:00,30.0,23.4,29.91,WSW,247,3.0,9.0,76,0.00,,,0.00,Weather View 32 v70,2013-03-23 10:50:00,
2013-03-23 06:55:00,30.0,23.4,29.91,WSW,247,1.0,9.0,76,0.00,,,0.00,Weather View 32 v70,2013-03-23 10:55:00,
2013-03-23 07:00:00,30.0,23.7,29.91,WSW,247,2.0,9.0,77,0.00,,,0.00,Weather View 32 v70,2013-03-23 11:00:00,
2013-03-23 07:05:00,30.0,23.7,29.91,WSW,247,2.0,9.0,77,0.00,,,0.00,Weather View 32 v70,2013-03-23 11:05:00,
2013-03-23 07:10:00,30.0,23.7,29.92,West,270,2.0,7.0,77,0.00,,,0.00,Weather View 32 v70,2013-03-23 11:10:00,
2013-03-23 07:15:00,30.0,24.0,29.92,West,270,2.0,7.0,78,0.00,,,0.00,Weather View 32 v70,2013-03-23 11:15:00,
2013-03-23 07:20:00,30.0,24.0,29.92,WSW,247,1.0,7.0,78,0.00,,,0.00,Weather View 32 v70,2013-03-23 11:20:00,
2013-03-23 07:25:00,30.0,23.7,29.92,West,270,3.0,7.0,77,0.00,,,0.00,Weather View 32 v70,2013-03-23 11:25:00,
2013-03-23 07:30:00,30.0,24.0,29.92,West,270,1.0,7.0,78,0.00,,,0.00,Weather View 32 v70,2013-03-23 11:30:00,
2013-03-23 07:35:00,30.0,23.7,29.92,WNW,292,3.0,7.0,77,0.00,,,0.00,Weather View 32 v70,2013-03-23 11:35:00,
2013-03-23 07:40:00,30.0,23.7,29.91,NW,315,4.0,6.0,77,0.00,,,0.00,Weather View 32 v70,2013-03-23 11:40:00,
2013-03-23 07:45:00,31.0,24.6,29.91,WSW,247,0.0,6.0,77,0.00,,,0.00,Weather View 32 v70,2013-03-23 11:45:00,
2013-03-23 07:50:00,31.0,24.9,29.91,West,270,1.0,6.0,78,0.00,,,0.00,Weather View 32 v70,2013-03-23 11:50:00,
2013-03-23 07:55:00,31.0,25.3,29.91,West,270,1.0,6.0,79,0.00,,,0.00,Weather View 32 v70,2013-03-23 11:55:00,
2013-03-23 08:00:00,31.0,24.9,29.92,West,270,6.0,6.0,78,0.00,,,0.00,Weather View 32 v70,2013-03-23 12:00:00,
2013-03-23 08:05:00,31.0,24.6,29.92,West,270,5.0,6.0,77,0.00,,,0.00,Weather View 32 v70,2013-03-23 12:05:00,
2013-03-23 08:10:00,32.0,25.3,29.91,West,270,2.0,7.0,76,0.00,,,0.00,Weather View 32 v70,2013-03-23 12:10:00,
2013-03-23 08:15:00,32.0,25.0,29.91,WSW,247,7.0,7.0,75,0.00,,,0.00,Weather View 32 v70,2013-03-23 12:15:00,
2013-03-23 08:20:00,32.0,24.6,29.91,West,270,5.0,8.0,74,0.00,,,0.00,Weather View 32 v70,2013-03-23 12:20:00,
2013-03-23 08:26:00,32.0,24.6,29.91,WNW,292,4.0,8.0,74,0.00,,,0.00,Weather View 32 v70,2013-03-23 12:26:00,
2013-03-23 08:31:00,33.0,26.6,29.90,WNW,292,3.0,8.0,77,0.00,,,0.00,Weather View 32 v70,2013-03-23 12:31:00,
2013-03-23 08:36:00,33.0,24.6,29.90,WSW,247,3.0,10.0,71,0.00,,,0.00,Weather View 32 v70,2013-03-23 12:36:00,
2013-03-23 08:41:00,33.0,23.9,29.90,WNW,292,9.0,10.0,69,0.00,,,0.00,Weather View 32 v70,2013-03-23 12:41:00,
2013-03-23 08:46:00,33.0,24.6,29.90,West,270,5.0,12.0,71,0.00,,,0.00,Weather View 32 v70,2013-03-23 12:46:00,
2013-03-23 08:51:00,33.0,23.9,29.89,NW,315,5.0,12.0,69,0.00,,,0.00,Weather View 32 v70,2013-03-23 12:51:00,
2013-03-23 08:56:00,34.0,24.5,29.89,West,270,6.0,13.0,68,0.00,,,0.00,Weather View 32 v70,2013-03-23 12:56:00,
2013-03-23 09:01:00,34.0,24.5,29.88,NW,315,6.0,13.0,68,0.00,,,0.00,Weather View 32 v70,2013-03-23 13:01:00,
2013-03-23 09:06:00,34.0,24.2,29.88,WSW,247,6.0,15.0,67,0.00,,,0.00,Weather View 32 v70,2013-03-23 13:06:00,
2013-03-23 09:11:00,34.0,24.2,29.88,WNW,292,7.0,15.0,67,0.00,,,0.00,Weather View 32 v70,2013-03-23 13:11:00,
2013-03-23 09:16:00,35.0,24.4,29.88,West,270,6.0,16.0,65,0.00,,,0.00,Weather View 32 v70,2013-03-23 13:16:00,
2013-03-23 09:21:00,35.0,24.4,29.87,West,270,9.0,16.0,65,0.00,,,0.00,Weather View 32 v70,2013-03-23 13:21:00,
2013-03-23 09:26:00,35.0,24.0,29.87,West,270,7.0,17.0,64,0.00,,,0.00,Weather View 32 v70,2013-03-23 13:26:00,
2013-03-23 09:31:00,36.0,24.2,29.85,West,270,9.0,17.0,62,0.00,,,0.00,Weather View 32 v70,2013-03-23 13:31:00,
2013-03-23 09:36:00,36.0,23.8,29.85,NW,315,6.0,23.0,61,0.00,,,0.00,Weather View 32 v70,2013-03-23 13:36:00,
2013-03-23 09:41:00,36.0,24.2,29.85,WNW,292,7.0,23.0,62,0.00,,,0.00,Weather View 32 v70,2013-03-23 13:41:00,
2013-03-23 09:46:00,36.0,23.8,29.85,SW,225,10.0,23.0,61,0.00,,,0.00,Weather View 32 v70,2013-03-23 13:46:00,
2013-03-23 09:51:00,37.0,24.8,29.86,WSW,247,5.0,23.0,61,0.00,,,0.00,Weather View 32 v70,2013-03-23 13:51:00,
2013-03-23 09:57:00,37.0,24.0,29.86,NW,315,9.0,23.0,59,0.00,,,0.00,Weather View 32 v70,2013-03-23 13:57:00,
2013-03-23 10:02:00,38.0,24.5,29.85,WSW,247,5.0,23.0,58,0.00,,,0.00,Weather View 32 v70,2013-03-23 14:02:00,
2013-03-23 10:07:00,37.0,23.2,29.85,WSW,247,2.0,23.0,57,0.00,,,0.00,Weather View 32 v70,2013-03-23 14:07:00,
2013-03-23 10:12:00,37.0,23.2,29.86,WSW,247,10.0,23.0,57,0.00,,,0.00,Weather View 32 v70,2013-03-23 14:12:00,
2013-03-23 10:17:00,37.0,24.0,29.86,NW,315,10.0,23.0,59,0.00,,,0.00,Weather View 32 v70,2013-03-23 14:17:00,
2013-03-23 10:22:00,37.0,24.0,29.86,WNW,292,6.0,23.0,59,0.00,,,0.00,Weather View 32 v70,2013-03-23 14:22:00,
2013-03-23 10:27:00,37.0,22.7,29.86,WNW,292,8.0,23.0,56,0.00,,,0.00,Weather View 32 v70,2013-03-23 14:27:00,
2013-03-23 10:32:00,37.0,23.2,29.86,NW,315,7.0,23.0,57,0.00,,,0.00,Weather View 32 v70,2013-03-23 14:32:00,
2013-03-23 10:37:00,37.0,22.7,29.86,NNW,337,10.0,19.0,56,0.00,,,0.00,Weather View 32 v70,2013-03-23 14:37:00,
2013-03-23 10:42:00,37.0,23.2,29.85,North,360,5.0,19.0,57,0.00,,,0.00,Weather View 32 v70,2013-03-23 14:42:00,
2013-03-23 10:47:00,37.0,22.7,29.85,NW,315,6.0,19.0,56,0.00,,,0.00,Weather View 32 v70,2013-03-23 14:47:00,
2013-03-23 10:52:00,37.0,22.7,29.86,NW,315,7.0,19.0,56,0.00,,,0.00,Weather View 32 v70,2013-03-23 14:52:00,
2013-03-23 10:57:00,38.0,23.7,29.86,NW,315,2.0,19.0,56,0.00,,,0.00,Weather View 32 v70,2013-03-23 14:57:00,
2013-03-23 11:02:00,38.0,22.8,29.85,North,360,2.0,19.0,54,0.00,,,0.00,Weather View 32 v70,2013-03-23 15:02:00,
2013-03-23 11:07:00,37.0,22.3,29.85,NNW,337,6.0,19.0,55,0.00,,,0.00,Weather View 32 v70,2013-03-23 15:07:00,
2013-03-23 11:12:00,38.0,23.7,29.86,WNW,292,6.0,19.0,56,0.00,,,0.00,Weather View 32 v70,2013-03-23 15:12:00,
2013-03-23 11:17:00,38.0,24.1,29.86,NNE,22,13.0,19.0,57,0.00,,,0.00,Weather View 32 v70,2013-03-23 15:17:00,
2013-03-23 11:22:00,38.0,23.7,29.85,WNW,292,10.0,17.0,56,0.00,,,0.00,Weather View 32 v70,2013-03-23 15:22:00,
2013-03-23 11:27:00,38.0,23.2,29.85,WNW,292,11.0,16.0,55,0.00,,,0.00,Weather View 32 v70,2013-03-23 15:27:00,
2013-03-23 11:33:00,38.0,23.7,29.85,WNW,292,7.0,20.0,56,0.00,,,0.00,Weather View 32 v70,2013-03-23 15:33:00,
2013-03-23 11:38:00,39.0,24.2,29.85,West,270,3.0,20.0,55,0.00,,,0.00,Weather View 32 v70,2013-03-23 15:38:00,
2013-03-23 11:43:00,39.0,23.3,29.85,NNW,337,9.0,20.0,53,0.00,,,0.00,Weather View 32 v70,2013-03-23 15:43:00,
2013-03-23 11:48:00,38.0,22.8,29.85,WNW,292,13.0,20.0,54,0.00,,,0.00,Weather View 32 v70,2013-03-23 15:48:00,
2013-03-23 11:53:00,39.0,24.2,29.84,WSW,247,8.0,20.0,55,0.00,,,0.00,Weather View 32 v70,2013-03-23 15:53:00,
2013-03-23 11:58:00,39.0,23.3,29.84,NNW,337,9.0,20.0,53,0.00,,,0.00,Weather View 32 v70,2013-03-23 15:58:00,
2013-03-23 12:03:00,39.0,22.8,29.85,WNW,292,6.0,20.0,52,0.00,,,0.00,Weather View 32 v70,2013-03-23 16:03:00,
2013-03-23 12:08:00,39.0,22.4,29.85,NNW,337,8.0,20.0,51,0.00,,,0.00,Weather View 32 v70,2013-03-23 16:08:00,
2013-03-23 12:13:00,39.0,21.4,29.85,North,360,7.0,20.0,49,0.00,,,0.00,Weather View 32 v70,2013-03-23 16:13:00,
2013-03-23 12:18:00,39.0,20.9,29.85,NW,315,6.0,20.0,48,0.00,,,0.00,Weather View 32 v70,2013-03-23 16:18:00,
2013-03-23 12:23:00,40.0,21.4,29.83,NNW,337,11.0,20.0,47,0.00,,,0.00,Weather View 32 v70,2013-03-23 16:23:00,
2013-03-23 12:28:00,41.0,21.3,29.83,West,270,3.0,20.0,45,0.00,,,0.00,Weather View 32 v70,2013-03-23 16:28:00,
2013-03-23 12:33:00,40.0,19.3,29.83,WNW,292,14.0,20.0,43,0.00,,,0.00,Weather View 32 v70,2013-03-23 16:33:00,
2013-03-23 12:38:00,40.0,19.8,29.83,West,270,15.0,20.0,44,0.00,,,0.00,Weather View 32 v70,2013-03-23 16:38:00,
2013-03-23 12:43:00,40.0,19.3,29.84,NNW,337,12.0,20.0,43,0.00,,,0.00,Weather View 32 v70,2013-03-23 16:43:00,
2013-03-23 12:48:00,40.0,17.6,29.84,NNW,337,22.0,22.0,40,0.00,,,0.00,Weather View 32 v70,2013-03-23 16:48:00,
2013-03-23 12:53:00,41.0,18.5,29.84,WSW,247,10.0,22.0,40,0.00,,,0.00,Weather View 32 v70,2013-03-23 16:53:00,
2013-03-23 12:58:00,41.0,17.9,29.84,WNW,292,17.0,29.0,39,0.00,,,0.00,Weather View 32 v70,2013-03-23 16:58:00,
2013-03-23 13:03:00,41.0,18.5,29.83,WNW,292,7.0,29.0,40,0.00,,,0.00,Weather View 32 v70,2013-03-23 17:03:00,
2013-03-23 13:08:00,41.0,17.9,29.83,NW,315,13.0,29.0,39,0.00,,,0.00,Weather View 32 v70,2013-03-23 17:08:00,
2013-03-23 13:13:00,41.0,16.7,29.84,NW,315,12.0,29.0,37,0.02,,,0.02,Weather View 32 v70,2013-03-23 17:13:00,
2013-03-23 13:18:00,41.0,17.3,29.84,NW,315,9.0,29.0,38,0.02,,,0.02,Weather View 32 v70,2013-03-23 17:18:00,
2013-03-23 13:23:00,41.0,16.1,29.83,WNW,292,4.0,29.0,36,0.02,,,0.02,Weather View 32 v70,2013-03-23 17:23:00,
2013-03-23 13:28:00,41.0,16.1,29.83,NW,315,12.0,29.0,36,0.02,,,0.02,Weather View 32 v70,2013-03-23 17:28:00,
2013-03-23 13:33:00,42.0,16.9,29.83,WNW,292,9.0,29.0,36,0.02,,,0.02,Weather View 32 v70,2013-03-23 17:33:00,
2013-03-23 13:38:00,42.0,16.9,29.83,NW,315,9.0,29.0,36,0.02,,,0.02,Weather View 32 v70,2013-03-23 17:38:00,
2013-03-23 13:43:00,42.0,15.6,29.83,WNW,292,6.0,29.0,34,0.02,,,0.02,Weather View 32 v70,2013-03-23 17:43:00,
2013-03-23 13:48:00,43.0,15.8,29.83,West,270,6.0,29.0,33,0.02,,,0.02,Weather View 32 v70,2013-03-23 17:48:00,
2013-03-23 13:53:00,42.0,14.9,29.82,NW,315,17.0,29.0,33,0.02,,,0.02,Weather View 32 v70,2013-03-23 17:53:00,
2013-03-23 13:58:00,42.0,15.6,29.82,West,270,12.0,29.0,34,0.02,,,0.02,Weather View 32 v70,2013-03-23 17:58:00,
2013-03-23 14:04:00,43.0,17.8,29.81,WNW,292,17.0,29.0,36,0.02,,,0.02,Weather View 32 v70,2013-03-23 18:04:00,
2013-03-23 14:09:00,42.0,14.2,29.81,North,360,15.0,29.0,32,0.02,,,0.02,Weather View 32 v70,2013-03-23 18:09:00,
2013-03-23 14:14:00,41.0,14.7,29.82,NW,315,17.0,29.0,34,0.00,,,0.02,Weather View 32 v70,2013-03-23 18:14:00,
2013-03-23 14:19:00,41.0,16.1,29.82,NW,315,6.0,29.0,36,0.00,,,0.02,Weather View 32 v70,2013-03-23 18:19:00,
2013-03-23 14:24:00,42.0,15.6,29.82,NW,315,3.0,29.0,34,0.00,,,0.02,Weather View 32 v70,2013-03-23 18:24:00,
2013-03-23 14:29:00,42.0,16.9,29.82,NW,315,3.0,29.0,36,0.00,,,0.02,Weather View 32 v70,2013-03-23 18:29:00,
2013-03-23 14:34:00,43.0,16.5,29.81,NW,315,11.0,29.0,34,0.00,,,0.02,Weather View 32 v70,2013-03-23 18:34:00,
2013-03-23 14:39:00,42.0,14.2,29.81,NNW,337,17.0,29.0,32,0.00,,,0.02,Weather View 32 v70,2013-03-23 18:39:00,
2013-03-23 14:44:00,43.0,16.5,29.80,NW,315,7.0,29.0,34,0.01,,,0.02,Weather View 32 v70,2013-03-23 18:44:00,
2013-03-23 14:49:00,44.0,16.7,29.80,NW,315,9.0,31.0,33,0.01,,,0.02,Weather View 32 v70,2013-03-23 18:49:00,
2013-03-23 14:54:00,43.0,15.1,29.80,NNW,337,12.0,31.0,32,0.00,,,0.02,Weather View 32 v70,2013-03-23 18:54:00,
2013-03-23 14:59:00,43.0,15.8,29.80,West,270,12.0,31.0,33,0.00,,,0.02,Weather View 32 v70,2013-03-23 18:59:00,
2013-03-23 15:04:00,44.0,16.7,29.80,North,360,5.0,31.0,33,0.00,,,0.02,Weather View 32 v70,2013-03-23 19:04:00,
2013-03-23 15:09:00,43.0,15.1,29.80,West,270,11.0,31.0,32,0.00,,,0.02,Weather View 32 v70,2013-03-23 19:09:00,
2013-03-23 15:14:00,43.0,16.5,29.80,WSW,247,10.0,31.0,34,0.00,,,0.02,Weather View 32 v70,2013-03-23 19:14:00,
2013-03-23 15:19:00,43.0,15.8,29.80,NW,315,10.0,31.0,33,0.00,,,0.02,Weather View 32 v70,2013-03-23 19:19:00,
2013-03-23 15:24:00,44.0,17.4,29.80,North,360,6.0,31.0,34,0.00,,,0.02,Weather View 32 v70,2013-03-23 19:24:00,
2013-03-23 15:29:00,43.0,16.5,29.80,East,90,6.0,31.0,34,0.00,,,0.02,Weather View 32 v70,2013-03-23 19:29:00,
2013-03-23 15:34:00,43.0,15.8,29.79,NW,315,9.0,31.0,33,0.00,,,0.02,Weather View 32 v70,2013-03-23 19:34:00,
2013-03-23 15:39:00,43.0,15.8,29.79,SSW,202,5.0,31.0,33,0.00,,,0.02,Weather View 32 v70,2013-03-23 19:39:00,
2013-03-23 15:44:00,43.0,16.5,29.79,North,360,15.0,31.0,34,0.00,,,0.02,Weather View 32 v70,2013-03-23 19:44:00,
2013-03-23 15:49:00,43.0,15.8,29.79,NW,315,10.0,29.0,33,0.00,,,0.02,Weather View 32 v70,2013-03-23 19:49:00,
2013-03-23 15:54:00,42.0,14.2,29.80,NW,315,13.0,28.0,32,0.00,,,0.02,Weather View 32 v70,2013-03-23 19:54:00,
2013-03-23 15:59:00,42.0,15.6,29.80,NW,315,5.0,28.0,34,0.00,,,0.02,Weather View 32 v70,2013-03-23 19:59:00,
2013-03-23 16:04:00,42.0,16.3,29.81,NNW,337,8.0,28.0,35,0.00,,,0.02,Weather View 32 v70,2013-03-23 20:04:00,
2013-03-23 16:09:00,42.0,15.6,29.80,NW,315,13.0,28.0,34,0.00,,,0.02,Weather View 32 v70,2013-03-23 20:09:00,
2013-03-23 16:14:00,42.0,16.3,29.80,WNW,292,10.0,28.0,35,0.00,,,0.02,Weather View 32 v70,2013-03-23 20:14:00,
2013-03-23 16:19:00,42.0,15.6,29.80,WNW,292,9.0,28.0,34,0.00,,,0.02,Weather View 32 v70,2013-03-23 20:19:00,
2013-03-23 16:25:00,42.0,16.3,29.80,NW,315,14.0,28.0,35,0.00,,,0.02,Weather View 32 v70,2013-03-23 20:25:00,
2013-03-23 16:30:00,43.0,16.5,29.81,NW,315,18.0,28.0,34,0.00,,,0.02,Weather View 32 v70,2013-03-23 20:30:00,
2013-03-23 16:35:00,43.0,16.5,29.81,NW,315,12.0,28.0,34,0.00,,,0.02,Weather View 32 v70,2013-03-23 20:35:00,
2013-03-23 16:40:00,43.0,15.8,29.81,NNW,337,19.0,27.0,33,0.00,,,0.02,Weather View 32 v70,2013-03-23 20:40:00,
2013-03-23 16:45:00,43.0,16.5,29.81,WSW,247,2.0,27.0,34,0.00,,,0.02,Weather View 32 v70,2013-03-23 20:45:00,
2013-03-23 16:50:00,43.0,16.5,29.81,NNW,337,9.0,27.0,34,0.00,,,0.02,Weather View 32 v70,2013-03-23 20:50:00,
2013-03-23 16:55:00,42.0,15.6,29.81,NW,315,11.0,27.0,34,0.00,,,0.02,Weather View 32 v70,2013-03-23 20:55:00,
2013-03-23 17:00:00,43.0,16.5,29.81,WNW,292,7.0,27.0,34,0.00,,,0.02,Weather View 32 v70,2013-03-23 21:00:00,
2013-03-23 17:05:00,43.0,17.8,29.81,NW,315,4.0,27.0,36,0.00,,,0.02,Weather View 32 v70,2013-03-23 21:05:00,
2013-03-23 17:10:00,43.0,17.2,29.81,NNW,337,5.0,27.0,35,0.00,,,0.02,Weather View 32 v70,2013-03-23 21:10:00,
2013-03-23 17:15:00,44.0,18.1,29.81,WSW,247,6.0,28.0,35,0.00,,,0.02,Weather View 32 v70,2013-03-23 21:15:00,
2013-03-23 17:20:00,43.0,16.5,29.81,NNW,337,9.0,28.0,34,0.00,,,0.02,Weather View 32 v70,2013-03-23 21:20:00,
2013-03-23 17:25:00,43.0,17.2,29.81,NW,315,6.0,28.0,35,0.00,,,0.02,Weather View 32 v70,2013-03-23 21:25:00,
2013-03-23 17:30:00,43.0,17.2,29.81,NNW,337,12.0,28.0,35,0.00,,,0.02,Weather View 32 v70,2013-03-23 21:30:00,
2013-03-23 17:35:00,42.0,15.6,29.81,NW,315,19.0,28.0,34,0.00,,,0.02,Weather View 32 v70,2013-03-23 21:35:00,
2013-03-23 17:40:00,42.0,16.3,29.82,NNW,337,13.0,28.0,35,0.00,,,0.02,Weather View 32 v70,2013-03-23 21:40:00,
2013-03-23 17:45:00,42.0,16.9,29.82,NNW,337,7.0,28.0,36,0.00,,,0.02,Weather View 32 v70,2013-03-23 21:45:00,
2013-03-23 17:50:00,42.0,16.9,29.82,NNE,22,13.0,28.0,36,0.00,,,0.02,Weather View 32 v70,2013-03-23 21:50:00,
2013-03-23 17:55:00,42.0,17.6,29.82,NW,315,10.0,28.0,37,0.00,,,0.02,Weather View 32 v70,2013-03-23 21:55:00,
2013-03-23 18:00:00,42.0,16.9,29.82,NNW,337,14.0,29.0,36,0.00,,,0.02,Weather View 32 v70,2013-03-23 22:00:00,
2013-03-23 18:05:00,42.0,16.9,29.82,NNW,337,12.0,29.0,36,0.00,,,0.02,Weather View 32 v70,2013-03-23 22:05:00,
2013-03-23 18:10:00,42.0,16.9,29.83,NW,315,10.0,29.0,36,0.00,,,0.02,Weather View 32 v70,2013-03-23 22:10:00,
2013-03-23 18:15:00,42.0,17.6,29.83,West,270,7.0,29.0,37,0.00,,,0.02,Weather View 32 v70,2013-03-23 22:15:00,
2013-03-23 18:20:00,42.0,16.9,29.83,WNW,292,11.0,29.0,36,0.00,,,0.02,Weather View 32 v70,2013-03-23 22:20:00,
2013-03-23 18:25:00,42.0,16.9,29.83,NW,315,7.0,29.0,36,0.00,,,0.02,Weather View 32 v70,2013-03-23 22:25:00,
2013-03-23 18:30:00,42.0,16.9,29.83,West,270,7.0,29.0,36,0.00,,,0.02,Weather View 32 v70,2013-03-23 22:30:00,
2013-03-23 18:35:00,41.0,16.7,29.83,West,270,6.0,29.0,37,0.00,,,0.02,Weather View 32 v70,2013-03-23 22:35:00,
2013-03-23 18:40:00,41.0,17.9,29.85,SSW,202,5.0,29.0,39,0.00,,,0.02,Weather View 32 v70,2013-03-23 22:40:00,
2013-03-23 18:45:00,41.0,17.3,29.85,NW,315,6.0,29.0,38,0.00,,,0.02,Weather View 32 v70,2013-03-23 22:45:00,
2013-03-23 18:50:00,41.0,17.9,29.86,NW,315,4.0,29.0,39,0.00,,,0.02,Weather View 32 v70,2013-03-23 22:50:00,
2013-03-23 18:55:00,40.0,17.0,29.86,ENE,67,7.0,29.0,39,0.00,,,0.02,Weather View 32 v70,2013-03-23 22:55:00,
2013-03-23 19:00:00,40.0,17.0,29.86,NNW,337,7.0,19.0,39,0.00,,,0.02,Weather View 32 v70,2013-03-23 23:00:00,
2013-03-23 19:05:00,40.0,18.2,29.86,North,360,2.0,19.0,41,0.00,,,0.02,Weather View 32 v70,2013-03-23 23:05:00,
2013-03-23 19:10:00,39.0,17.3,29.88,North,360,7.0,17.0,41,0.00,,,0.02,Weather View 32 v70,2013-03-23 23:10:00,
2013-03-23 19:15:00,39.0,18.4,29.88,NW,315,2.0,17.0,43,0.00,,,0.02,Weather View 32 v70,2013-03-23 23:15:00,
2013-03-23 19:20:00,39.0,17.8,29.88,NW,315,10.0,17.0,42,0.00,,,0.02,Weather View 32 v70,2013-03-23 23:20:00,
2013-03-23 19:25:00,39.0,17.8,29.88,WNW,292,9.0,17.0,42,0.00,,,0.02,Weather View 32 v70,2013-03-23 23:25:00,
2013-03-23 19:30:00,39.0,17.3,29.89,North,360,8.0,17.0,41,0.00,,,0.02,Weather View 32 v70,2013-03-23 23:30:00,
2013-03-23 19:35:00,39.0,17.8,29.89,NNW,337,7.0,17.0,42,0.00,,,0.02,Weather View 32 v70,2013-03-23 23:35:00,
2013-03-23 19:40:00,39.0,17.8,29.89,NW,315,9.0,17.0,42,0.00,,,0.02,Weather View 32 v70,2013-03-23 23:40:00,
2013-03-23 19:45:00,38.0,16.9,29.89,WNW,292,3.0,17.0,42,0.00,,,0.02,Weather View 32 v70,2013-03-23 23:45:00,
2013-03-23 19:50:00,38.0,16.9,29.89,NE,45,4.0,17.0,42,0.00,,,0.02,Weather View 32 v70,2013-03-23 23:50:00,
2013-03-23 19:55:00,38.0,16.9,29.89,NW,315,7.0,17.0,42,0.00,,,0.02,Weather View 32 v70,2013-03-23 23:55:00,
2013-03-23 20:00:00,38.0,16.9,29.90,NE,45,5.0,17.0,42,0.00,,,0.02,Weather View 32 v70,2013-03-24 00:00:00,
2013-03-23 20:05:00,38.0,18.0,29.90,North,360,10.0,17.0,44,0.00,,,0.02,Weather View 32 v70,2013-03-24 00:05:00,
2013-03-23 20:10:00,38.0,17.5,29.91,NNW,337,9.0,20.0,43,0.00,,,0.02,Weather View 32 v70,2013-03-24 00:10:00,
2013-03-23 20:15:00,37.0,17.1,29.91,NW,315,8.0,21.0,44,0.00,,,0.02,Weather View 32 v70,2013-03-24 00:15:00,
2013-03-23 20:20:00,37.0,16.0,29.93,NNW,337,12.0,22.0,42,0.00,,,0.02,Weather View 32 v70,2013-03-24 00:20:00,
2013-03-23 20:25:00,37.0,17.1,29.93,West,270,3.0,22.0,44,0.00,,,0.02,Weather View 32 v70,2013-03-24 00:25:00,
2013-03-23 20:30:00,37.0,17.1,29.93,NW,315,9.0,22.0,44,0.00,,,0.02,Weather View 32 v70,2013-03-24 00:30:00,
2013-03-23 20:35:00,37.0,17.1,29.93,NNW,337,10.0,22.0,44,0.00,,,0.02,Weather View 32 v70,2013-03-24 00:35:00,
2013-03-23 20:40:00,37.0,17.1,29.93,NW,315,12.0,22.0,44,0.00,,,0.02,Weather View 32 v70,2013-03-24 00:40:00,
2013-03-23 20:46:00,37.0,17.1,29.93,WNW,292,6.0,22.0,44,0.00,,,0.02,Weather View 32 v70,2013-03-24 00:46:00,
2013-03-23 20:51:00,37.0,17.1,29.93,NNW,337,12.0,22.0,44,0.00,,,0.02,Weather View 32 v70,2013-03-24 00:51:00,
2013-03-23 20:56:00,36.0,16.7,29.93,NW,315,6.0,22.0,45,0.00,,,0.02,Weather View 32 v70,2013-03-24 00:56:00,
2013-03-23 21:01:00,36.0,16.7,29.94,WSW,247,7.0,22.0,45,0.00,,,0.02,Weather View 32 v70,2013-03-24 01:01:00,
2013-03-23 21:06:00,36.0,16.7,29.94,SSW,202,14.0,22.0,45,0.00,,,0.02,Weather View 32 v70,2013-03-24 01:06:00,
2013-03-23 21:11:00,37.0,17.1,29.95,North,360,7.0,28.0,44,0.00,,,0.02,Weather View 32 v70,2013-03-24 01:11:00,
2013-03-23 21:16:00,37.0,17.1,29.95,NNW,337,10.0,28.0,44,0.00,,,0.02,Weather View 32 v70,2013-03-24 01:16:00,
2013-03-23 21:21:00,37.0,17.6,29.95,WNW,292,8.0,28.0,45,0.00,,,0.02,Weather View 32 v70,2013-03-24 01:21:00,
2013-03-23 21:26:00,36.0,17.2,29.95,NW,315,7.0,28.0,46,0.00,,,0.02,Weather View 32 v70,2013-03-24 01:26:00,
2013-03-23 21:31:00,36.0,17.2,29.95,NNW,337,13.0,28.0,46,0.00,,,0.02,Weather View 32 v70,2013-03-24 01:31:00,
2013-03-23 21:36:00,36.0,17.2,29.95,NNW,337,15.0,28.0,46,0.00,,,0.02,Weather View 32 v70,2013-03-24 01:36:00,
2013-03-23 21:41:00,36.0,17.2,29.95,NNW,337,10.0,28.0,46,0.00,,,0.02,Weather View 32 v70,2013-03-24 01:41:00,
2013-03-23 21:46:00,36.0,17.2,29.95,WNW,292,9.0,28.0,46,0.00,,,0.02,Weather View 32 v70,2013-03-24 01:46:00,
2013-03-23 21:51:00,36.0,17.7,29.94,NW,315,11.0,28.0,47,0.00,,,0.02,Weather View 32 v70,2013-03-24 01:51:00,
2013-03-23 21:57:00,36.0,17.7,29.94,WNW,292,7.0,28.0,47,0.00,,,0.02,Weather View 32 v70,2013-03-24 01:57:00,
2013-03-23 22:02:00,36.0,18.2,29.94,NW,315,5.0,28.0,48,0.00,,,0.02,Weather View 32 v70,2013-03-24 02:02:00,
2013-03-23 22:07:00,36.0,18.7,29.94,NNE,22,7.0,28.0,49,0.00,,,0.02,Weather View 32 v70,2013-03-24 02:07:00,
2013-03-23 22:12:00,35.0,18.7,29.95,West,270,5.0,24.0,51,0.00,,,0.02,Weather View 32 v70,2013-03-24 02:12:00,
2013-03-23 22:17:00,35.0,18.7,29.95,NW,315,9.0,21.0,51,0.00,,,0.02,Weather View 32 v70,2013-03-24 02:17:00,
2013-03-23 22:22:00,35.0,18.2,29.95,WNW,292,9.0,21.0,50,0.00,,,0.02,Weather View 32 v70,2013-03-24 02:22:00,
2013-03-23 22:27:00,35.0,17.8,29.95,West,270,7.0,21.0,49,0.00,,,0.02,Weather View 32 v70,2013-03-24 02:27:00,
2013-03-23 22:32:00,35.0,17.8,29.95,WNW,292,15.0,20.0,49,0.00,,,0.02,Weather View 32 v70,2013-03-24 02:32:00,
2013-03-23 22:37:00,35.0,17.8,29.95,NW,315,7.0,20.0,49,0.00,,,0.02,Weather View 32 v70,2013-03-24 02:37:00,
2013-03-23 22:42:00,35.0,17.3,29.96,NW,315,9.0,20.0,48,0.00,,,0.02,Weather View 32 v70,2013-03-24 02:42:00,
2013-03-23 22:47:00,35.0,17.3,29.96,NW,315,7.0,20.0,48,0.00,,,0.02,Weather View 32 v70,2013-03-24 02:47:00,
2013-03-23 22:52:00,35.0,17.8,29.95,NW,315,7.0,20.0,49,0.00,,,0.02,Weather View 32 v70,2013-03-24 02:52:00,
2013-03-23 22:57:00,35.0,17.8,29.95,NNW,337,7.0,20.0,49,0.00,,,0.02,Weather View 32 v70,2013-03-24 02:57:00,
2013-03-23 23:02:00,35.0,17.8,29.95,NW,315,16.0,20.0,49,0.00,,,0.02,Weather View 32 v70,2013-03-24 03:02:00,
2013-03-23 23:07:00,35.0,18.2,29.95,NNW,337,7.0,20.0,50,0.00,,,0.02,Weather View 32 v70,2013-03-24 03:07:00,
2013-03-23 23:12:00,35.0,17.8,29.96,NW,315,7.0,20.0,49,0.00,,,0.02,Weather View 32 v70,2013-03-24 03:12:00,
2013-03-23 23:17:00,35.0,18.2,29.96,NW,315,4.0,19.0,50,0.00,,,0.02,Weather View 32 v70,2013-03-24 03:17:00,
2013-03-23 23:22:00,35.0,18.2,29.96,NNW,337,6.0,19.0,50,0.00,,,0.02,Weather View 32 v70,2013-03-24 03:22:00,
2013-03-23 23:27:00,35.0,18.2,29.96,NW,315,5.0,16.0,50,0.00,,,0.02,Weather View 32 v70,2013-03-24 03:27:00,
2013-03-23 23:32:00,35.0,18.7,29.96,NW,315,6.0,16.0,51,0.00,,,0.02,Weather View 32 v70,2013-03-24 03:32:00,
2013-03-23 23:37:00,35.0,18.7,29.96,WSW,247,7.0,16.0,51,0.00,,,0.02,Weather View 32 v70,2013-03-24 03:37:00,
2013-03-23 23:42:00,35.0,18.7,29.96,NNW,337,5.0,16.0,51,0.00,,,0.02,Weather View 32 v70,2013-03-24 03:42:00,
2013-03-23 23:47:00,35.0,19.1,29.96,NW,315,7.0,16.0,52,0.00,,,0.02,Weather View 32 v70,2013-03-24 03:47:00,
2013-03-23 23:52:00,34.0,18.6,29.96,West,270,9.0,16.0,53,0.00,,,0.02,Weather View 32 v70,2013-03-24 03:52:00,
2013-03-23 23:58:00,34.0,18.6,29.96,NW,315,9.0,16.0,53,0.00,,,0.02,Weather View 32 v70,2013-03-24 03:58:00,